Galveston Bay Weather

Located on Galveston Bay in Seabrook, Texas

Our Weather Station is currently down due to a lightning strike.  Expecting to be back online in June.  Please check back.  (webcam is operational)

Weather Links

Aviation Weather Information
GALVESTON, TX
Metar
KGLS 230752Z AUTO 31012KT 10SM OVC013 22/20 A2986 RMK AO2 SLP111 T02220200

07:52 UTC

Wind: 310° 12kt

Visibility: 10 SM

Sky: OVC 1300 ft

Temp: 22 deg C / 71.6 deg F

Dewpoint: 20 deg C / 68 deg F

Pressure: 29.86 inHg

TAF
KGLS 230757Z 2308/2406 32010KT P6SM OVC011 FM230900 01007KT P6SM BKN015 FM232200 10008KT P6SM VCSH BKN015 FM240200 32006KT 6SM -TSRA OVC015CB
Pireps (3)
IAH UA /OV IAH/TM 0742/FL011/TP A320/SK OVC011-TOP027
KIAH UA /OV RWY 26L FINAL/TM 0740/FL027/TP A320/SK SCT010, BKN015/RM TOPS 2,700 CLEAR ABOVE
HOU UA /OV 8 SW/TM 0736/FL020/TP B737/SK OVC010-TOP020
Galveston Bay Weather Station © 2016